Sioux Arrow — WAG6168 — position and weather

sailwx.info

Track history (hours):
 
Tides and Currents Weather Stations Pressure Air Temp Water Temp Dewpoint Dewpoint Depression Visibility Wind Speed Wind Dir Waves Ship Positions

Sioux Arrow

Owner: HARMON, JACK L, PORT ANGELES, WA. More information available from US FCC via Universal Licensing System and Coast Guard Vessel Documentation Center.

Last reported at 2017-May-23 19:28 UTC. Time now 2017-May-23 20:46 UTC.
Position N 48°31' W 122°34'.

Type: Port tender. MMSI: 366973370.

Date/timePositionNaut miles runAvg speedWind from/ knotsBaromVisibWave heightAir tempDewpointWater temp
2017-May-23 19:28N 48°31' W 122°34'0 0.0
2017-May-23 05:14N 48°31' W 122°34'0 0.1
2017-May-23 02:58N 48°31' W 122°34'0 0.1
2017-May-23 01:24N 48°31' W 122°34'3 1.3
2017-May-22 23:04N 48°34' W 122°34'113.3
2017-May-22 23:00N 48°35' W 122°34'3 0.3
2017-May-22 13:54N 48°32' W 122°34'4 9.7
2017-May-22 13:30N 48°35' W 122°33'5 1.8
2017-May-22 10:58N 48°31' W 122°34'1 0.1
2017-May-22 02:50N 48°31' W 122°36'413.2
2017-May-22 02:30N 48°35' W 122°34'4 4.6
2017-May-22 01:39N 48°31' W 122°34'0 0.1
2017-May-21 23:45N 48°31' W 122°35'3 7.8
2017-May-21 23:19N 48°34' W 122°34'2 4.7
2017-May-21 22:59N 48°35' W 122°33'2 0.1
2017-May-20 23:44N 48°33' W 122°34'414.5
2017-May-20 23:28N 48°37' W 122°33'5 0.7
2017-May-20 15:05N 48°32' W 122°34'313.4
2017-May-20 14:54N 48°34' W 122°34'3 8.1
2017-May-20 14:30N 48°37' W 122°33'4 0.4
2017-May-20 04:18N 48°33' W 122°34'310.1
2017-May-20 03:59N 48°36' W 122°33'2 0.3
2017-May-19 20:12N 48°34' W 122°34'211.0
2017-May-19 20:00N 48°36' W 122°34'5 4.3
2017-May-19 18:56N 48°32' W 122°34'613.5
2017-May-19 18:30N 48°37' W 122°33'0 0.0
2017-May-19 18:00N 48°37' W 122°33'2 4.1
2017-May-19 17:30N 48°35' W 122°34'2 1.1
2017-May-19 15:41N 48°33' W 122°34'211.8
2017-May-19 15:30N 48°35' W 122°34'1 2.6
2017-May-19 15:00N 48°37' W 122°34'6 0.2
2017-May-18 13:24N 48°31' W 122°36'4 8.9
2017-May-18 13:00N 48°34' W 122°34'0 0.3
2017-May-18 12:30N 48°34' W 122°34'4 7.6
2017-May-18 12:00N 48°31' W 122°36'0 0.0
2017-May-18 11:30N 48°31' W 122°36'0 0.0
2017-May-18 11:00N 48°31' W 122°36'0 0.0
2017-May-18 10:30N 48°31' W 122°36'0 0.0
2017-May-18 10:00N 48°31' W 122°36'0 0.0
2017-May-18 09:30N 48°31' W 122°36'0 0.0
2017-May-18 09:00N 48°31' W 122°36'0 0.0
2017-May-18 08:30N 48°31' W 122°36'0 0.0
2017-May-18 08:00N 48°31' W 122°36'0 0.0
2017-May-18 07:30N 48°31' W 122°36'0 0.0
2017-May-18 07:00N 48°31' W 122°36'0 0.0
2017-May-18 06:30N 48°31' W 122°36'0 0.0
2017-May-18 06:00N 48°31' W 122°36'0 0.0
2017-May-18 05:30N 48°31' W 122°36'0 0.0
2017-May-18 05:00N 48°31' W 122°36'0 0.0
2017-May-18 04:30N 48°31' W 122°36'0 0.0
2017-May-18 04:00N 48°31' W 122°36'0 0.0
2017-May-18 03:30N 48°31' W 122°36'0 0.0
2017-May-18 03:00N 48°31' W 122°36'0 0.0
2017-May-18 02:30N 48°31' W 122°36'0 0.0
2017-May-18 02:00N 48°31' W 122°36'0 0.0
2017-May-18 01:30N 48°31' W 122°36'0 0.0
2017-May-18 01:00N 48°31' W 122°36'0 0.0
2017-May-18 00:30N 48°31' W 122°36'0 0.0
2017-May-18 00:00N 48°31' W 122°36'0 0.0
2017-May-17 23:30N 48°31' W 122°36'0 0.0
2017-May-17 23:00N 48°31' W 122°36'0 0.0
2017-May-17 22:30N 48°31' W 122°36'0 0.0
2017-May-17 22:00N 48°31' W 122°36'0 0.0
2017-May-17 21:30N 48°31' W 122°36'0 0.0
2017-May-17 21:00N 48°31' W 122°36'0 0.0
2017-May-17 20:30N 48°31' W 122°36'0 0.0
2017-May-17 19:59N 48°31' W 122°36'0 0.0
2017-May-17 19:30N 48°31' W 122°36'0 0.0
2017-May-17 19:00N 48°31' W 122°36'0 0.0
2017-May-17 18:30N 48°31' W 122°36'0 0.0
2017-May-17 18:00N 48°31' W 122°36'0 0.0
2017-May-17 17:30N 48°31' W 122°36'0 0.0
2017-May-17 17:00N 48°31' W 122°36'0 0.0
2017-May-17 16:30N 48°31' W 122°36'0 0.0
2017-May-17 16:00N 48°31' W 122°36'0 0.0
2017-May-17 15:30N 48°31' W 122°36'0 0.0
2017-May-17 15:00N 48°31' W 122°36'0 0.0
2017-May-17 14:30N 48°31' W 122°36'0 0.0
2017-May-17 13:30N 48°31' W 122°36'0 0.0
2017-May-17 13:00N 48°31' W 122°36'0 0.0
2017-May-17 12:30N 48°31' W 122°36'0 0.0
2017-May-17 12:00N 48°31' W 122°36'0 0.0
2017-May-17 11:30N 48°31' W 122°36'0 0.0
2017-May-17 11:00N 48°31' W 122°36'4 8.4
2017-May-17 10:30N 48°35' W 122°34'3 5.4
2017-May-17 10:00N 48°37' W 122°33'4 7.0
2017-May-17 09:30N 48°34' W 122°34'3 6.8
2017-May-17 09:00N 48°31' W 122°36'0 0.0
2017-May-17 08:30N 48°31' W 122°36'0 0.0
2017-May-17 08:00N 48°31' W 122°36'0 0.0
2017-May-17 07:30N 48°31' W 122°36'0 0.0
2017-May-17 07:00N 48°31' W 122°36'0 0.0
2017-May-17 06:30N 48°31' W 122°36'0 0.0
2017-May-17 06:00N 48°31' W 122°36'0 0.0
2017-May-17 05:30N 48°31' W 122°36'5 9.9
2017-May-17 05:00N 48°35' W 122°34'4 8.8
2017-May-17 04:30N 48°31' W 122°35'1 1.6
2017-May-17 04:00N 48°31' W 122°36'0 0.0
2017-May-17 03:30N 48°31' W 122°36'0 0.1
2017-May-17 03:00N 48°31' W 122°37'1 2.2
2017-May-17 02:30N 48°31' W 122°35'1 2.2
2017-May-17 02:00N 48°31' W 122°36'0 0.0
2017-May-17 01:30N 48°31' W 122°36'0 0.0
2017-May-17 01:00N 48°31' W 122°36'0 0.1
2017-May-17 00:30N 48°31' W 122°37'0 0.0
2017-May-16 20:30N 48°31' W 122°36'0 0.1
2017-May-16 20:00N 48°31' W 122°37'510.3
2017-May-16 19:30N 48°35' W 122°33'3 6.4
2017-May-16 19:00N 48°32' W 122°34'1 0.0
2017-May-15 20:38N 48°32' W 122°34'212.5
2017-May-15 20:28N 48°34' W 122°34'2 1.6
2017-May-15 19:13N 48°35' W 122°32'0 0.5
2017-May-15 18:55N 48°35' W 122°33'1 0.2
2017-May-15 10:09N 48°35' W 122°34'2 9.9
2017-May-15 09:58N 48°36' W 122°32'2 0.2
2017-May-15 01:43N 48°35' W 122°34'2 2.3
2017-May-15 00:58N 48°36' W 122°34'2 0.2
2017-May-14 17:10N 48°35' W 122°34'2 6.8
2017-May-14 16:55N 48°36' W 122°34'6 3.7
2017-May-14 15:22N 48°31' W 122°36'411.4
2017-May-14 15:00N 48°35' W 122°34'1 2.1
2017-May-14 14:30N 48°36' W 122°34'  
Track history (hours):
 
Tides and Currents Weather Stations Pressure Air Temp Water Temp Dewpoint Dewpoint Depression Visibility Wind Speed Wind Dir Waves Ship Positions

Sioux Arrow

Owner: HARMON, JACK L, PORT ANGELES, WA. More information available from US FCC via Universal Licensing System and Coast Guard Vessel Documentation Center.

Last reported at 2017-May-23 19:28 UTC. Time now 2017-May-23 20:46 UTC.
Position N 48°31' W 122°34'.

Type: Port tender. MMSI: 366973370.

Date/timePositionNaut miles runAvg speedWind from/ knotsBaromVisibWave heightAir tempDewpointWater temp
2017-May-23 19:28N 48°31' W 122°34'0 0.0
2017-May-23 05:14N 48°31' W 122°34'0 0.1
2017-May-23 02:58N 48°31' W 122°34'0 0.1
2017-May-23 01:24N 48°31' W 122°34'3 1.3
2017-May-22 23:04N 48°34' W 122°34'113.3
2017-May-22 23:00N 48°35' W 122°34'3 0.3
2017-May-22 13:54N 48°32' W 122°34'4 9.7
2017-May-22 13:30N 48°35' W 122°33'5 1.8
2017-May-22 10:58N 48°31' W 122°34'1 0.1
2017-May-22 02:50N 48°31' W 122°36'413.2
2017-May-22 02:30N 48°35' W 122°34'4 4.6
2017-May-22 01:39N 48°31' W 122°34'0 0.1
2017-May-21 23:45N 48°31' W 122°35'3 7.8
2017-May-21 23:19N 48°34' W 122°34'2 4.7
2017-May-21 22:59N 48°35' W 122°33'2 0.1
2017-May-20 23:44N 48°33' W 122°34'414.5
2017-May-20 23:28N 48°37' W 122°33'5 0.7
2017-May-20 15:05N 48°32' W 122°34'313.4
2017-May-20 14:54N 48°34' W 122°34'3 8.1
2017-May-20 14:30N 48°37' W 122°33'4 0.4
2017-May-20 04:18N 48°33' W 122°34'310.1
2017-May-20 03:59N 48°36' W 122°33'2 0.3
2017-May-19 20:12N 48°34' W 122°34'211.0
2017-May-19 20:00N 48°36' W 122°34'5 4.3
2017-May-19 18:56N 48°32' W 122°34'613.5
2017-May-19 18:30N 48°37' W 122°33'0 0.0
2017-May-19 18:00N 48°37' W 122°33'2 4.1
2017-May-19 17:30N 48°35' W 122°34'2 1.1
2017-May-19 15:41N 48°33' W 122°34'211.8
2017-May-19 15:30N 48°35' W 122°34'1 2.6
2017-May-19 15:00N 48°37' W 122°34'6 0.2
2017-May-18 13:24N 48°31' W 122°36'4 8.9
2017-May-18 13:00N 48°34' W 122°34'0 0.3
2017-May-18 12:30N 48°34' W 122°34'4 7.6
2017-May-18 12:00N 48°31' W 122°36'0 0.0
2017-May-18 11:30N 48°31' W 122°36'0 0.0
2017-May-18 11:00N 48°31' W 122°36'0 0.0
2017-May-18 10:30N 48°31' W 122°36'0 0.0
2017-May-18 10:00N 48°31' W 122°36'0 0.0
2017-May-18 09:30N 48°31' W 122°36'0 0.0
2017-May-18 09:00N 48°31' W 122°36'0 0.0
2017-May-18 08:30N 48°31' W 122°36'0 0.0
2017-May-18 08:00N 48°31' W 122°36'0 0.0
2017-May-18 07:30N 48°31' W 122°36'0 0.0
2017-May-18 07:00N 48°31' W 122°36'0 0.0
2017-May-18 06:30N 48°31' W 122°36'0 0.0
2017-May-18 06:00N 48°31' W 122°36'0 0.0
2017-May-18 05:30N 48°31' W 122°36'0 0.0
2017-May-18 05:00N 48°31' W 122°36'0 0.0
2017-May-18 04:30N 48°31' W 122°36'0 0.0
2017-May-18 04:00N 48°31' W 122°36'0 0.0
2017-May-18 03:30N 48°31' W 122°36'0 0.0
2017-May-18 03:00N 48°31' W 122°36'0 0.0
2017-May-18 02:30N 48°31' W 122°36'0 0.0
2017-May-18 02:00N 48°31' W 122°36'0 0.0
2017-May-18 01:30N 48°31' W 122°36'0 0.0
2017-May-18 01:00N 48°31' W 122°36'0 0.0
2017-May-18 00:30N 48°31' W 122°36'0 0.0
2017-May-18 00:00N 48°31' W 122°36'0 0.0
2017-May-17 23:30N 48°31' W 122°36'0 0.0
2017-May-17 23:00N 48°31' W 122°36'0 0.0
2017-May-17 22:30N 48°31' W 122°36'0 0.0
2017-May-17 22:00N 48°31' W 122°36'0 0.0
2017-May-17 21:30N 48°31' W 122°36'0 0.0
2017-May-17 21:00N 48°31' W 122°36'0 0.0
2017-May-17 20:30N 48°31' W 122°36'0 0.0
2017-May-17 19:59N 48°31' W 122°36'0 0.0
2017-May-17 19:30N 48°31' W 122°36'0 0.0
2017-May-17 19:00N 48°31' W 122°36'0 0.0
2017-May-17 18:30N 48°31' W 122°36'0 0.0
2017-May-17 18:00N 48°31' W 122°36'0 0.0
2017-May-17 17:30N 48°31' W 122°36'0 0.0
2017-May-17 17:00N 48°31' W 122°36'0 0.0
2017-May-17 16:30N 48°31' W 122°36'0 0.0
2017-May-17 16:00N 48°31' W 122°36'0 0.0
2017-May-17 15:30N 48°31' W 122°36'0 0.0
2017-May-17 15:00N 48°31' W 122°36'0 0.0
2017-May-17 14:30N 48°31' W 122°36'0 0.0
2017-May-17 13:30N 48°31' W 122°36'0 0.0
2017-May-17 13:00N 48°31' W 122°36'0 0.0
2017-May-17 12:30N 48°31' W 122°36'0 0.0
2017-May-17 12:00N 48°31' W 122°36'0 0.0
2017-May-17 11:30N 48°31' W 122°36'0 0.0
2017-May-17 11:00N 48°31' W 122°36'4 8.4
2017-May-17 10:30N 48°35' W 122°34'3 5.4
2017-May-17 10:00N 48°37' W 122°33'4 7.0
2017-May-17 09:30N 48°34' W 122°34'3 6.8
2017-May-17 09:00N 48°31' W 122°36'0 0.0
2017-May-17 08:30N 48°31' W 122°36'0 0.0
2017-May-17 08:00N 48°31' W 122°36'0 0.0
2017-May-17 07:30N 48°31' W 122°36'0 0.0
2017-May-17 07:00N 48°31' W 122°36'0 0.0
2017-May-17 06:30N 48°31' W 122°36'0 0.0
2017-May-17 06:00N 48°31' W 122°36'0 0.0
2017-May-17 05:30N 48°31' W 122°36'5 9.9
2017-May-17 05:00N 48°35' W 122°34'4 8.8
2017-May-17 04:30N 48°31' W 122°35'1 1.6
2017-May-17 04:00N 48°31' W 122°36'0 0.0
2017-May-17 03:30N 48°31' W 122°36'0 0.1
2017-May-17 03:00N 48°31' W 122°37'1 2.2
2017-May-17 02:30N 48°31' W 122°35'1 2.2
2017-May-17 02:00N 48°31' W 122°36'0 0.0
2017-May-17 01:30N 48°31' W 122°36'0 0.0
2017-May-17 01:00N 48°31' W 122°36'0 0.1
2017-May-17 00:30N 48°31' W 122°37'0 0.0
2017-May-16 20:30N 48°31' W 122°36'0 0.1
2017-May-16 20:00N 48°31' W 122°37'510.3
2017-May-16 19:30N 48°35' W 122°33'3 6.4
2017-May-16 19:00N 48°32' W 122°34'1 0.0
2017-May-15 20:38N 48°32' W 122°34'212.5
2017-May-15 20:28N 48°34' W 122°34'2 1.6
2017-May-15 19:13N 48°35' W 122°32'0 0.5
2017-May-15 18:55N 48°35' W 122°33'1 0.2
2017-May-15 10:09N 48°35' W 122°34'2 9.9
2017-May-15 09:58N 48°36' W 122°32'2 0.2
2017-May-15 01:43N 48°35' W 122°34'2 2.3
2017-May-15 00:58N 48°36' W 122°34'2 0.2
2017-May-14 17:10N 48°35' W 122°34'2 6.8
2017-May-14 16:55N 48°36' W 122°34'6 3.7
2017-May-14 15:22N 48°31' W 122°36'411.4
2017-May-14 15:00N 48°35' W 122°34'1 2.1
2017-May-14 14:30N 48°36' W 122°34'  

Dump ship's entire track history